Time;durP1;ratioP1;P1;durP2;ratioP2;P2;SDS_P1;SDS_P2;PMS_P1;PMS_P2;Temp;Humidity;BMP_temperature;BMP_pressure;BME280_temperature;BME280_humidity;BME280_pressure;Samples;Min_cycle;Max_cycle;Signal;HPM_P1;HPM_P2
2022/02/19 00:00:24;;;;;;;22.65;9.55;;;;;;;0.40;87.38;98841.41;1665726;85;20962;-71
2022/02/19 00:02:52;;;;;;;25.12;9.50;;;;;;;0.40;87.56;98838.70;1665636;85;20975;-68
2022/02/19 00:05:20;;;;;;;23.00;9.85;;;;;;;0.40;87.60;98846.83;1665662;85;21513;-69
2022/02/19 00:07:49;;;;;;;18.42;8.65;;;;;;;0.42;87.72;98846.03;1666068;86;21509;-71
2022/02/19 00:10:21;;;;;;;22.95;9.18;;;;;;;0.43;87.74;98834.63;1665669;86;21160;-67
2022/02/19 00:12:47;;;;;;;26.40;8.35;;;;;;;0.43;87.70;98838.69;1665783;86;21048;-71
2022/02/19 00:15:15;;;;;;;23.62;9.03;;;;;;;0.42;87.74;98838.42;1665654;85;21137;-67
2022/02/19 00:17:45;;;;;;;19.60;8.20;;;;;;;0.41;87.63;98824.05;1665686;85;21033;-71
2022/02/19 00:20:13;;;;;;;20.10;7.85;;;;;;;0.40;87.60;98823.79;1665884;85;20990;-71
2022/02/19 00:22:41;;;;;;;23.18;7.50;;;;;;;0.36;87.53;98824.86;1665695;85;21127;-67
2022/02/19 00:25:09;;;;;;;16.52;7.33;;;;;;;0.36;87.64;98826.75;1665508;85;20996;-69
2022/02/19 00:27:41;;;;;;;16.75;6.80;;;;;;;0.34;87.76;98818.09;1666154;85;21540;-67
2022/02/19 00:30:11;;;;;;;16.55;7.17;;;;;;;0.34;87.84;98820.25;1665692;85;21062;-70
2022/02/19 00:32:44;;;;;;;23.87;7.97;;;;;;;0.34;87.88;98815.39;1666149;86;20949;-69
2022/02/19 00:35:11;;;;;;;21.02;7.45;;;;;;;0.33;87.94;98810.50;1665993;86;21457;-69
2022/02/19 00:37:38;;;;;;;18.20;7.65;;;;;;;0.35;88.04;98806.16;1665986;85;21024;-70
2022/02/19 00:40:08;;;;;;;22.95;7.90;;;;;;;0.35;87.98;98791.25;1665906;85;21418;-70
2022/02/19 00:42:38;;;;;;;16.85;6.78;;;;;;;0.35;88.05;98783.95;1643827;86;20956;-70
2022/02/19 00:45:06;;;;;;;23.10;7.72;;;;;;;0.35;87.98;98785.83;1673557;84;20858;-70
2022/02/19 00:47:34;;;;;;;18.15;8.18;;;;;;;0.36;88.03;98778.78;1694136;84;21156;-70
2022/02/19 00:50:01;;;;;;;15.35;7.20;;;;;;;0.34;87.92;98778.23;1693754;84;20898;-70
2022/02/19 00:52:37;;;;;;;20.45;7.47;;;;;;;0.35;87.91;98774.98;1665942;84;21018;-70
2022/02/19 00:55:09;;;;;;;13.08;6.10;;;;;;;0.34;87.97;98761.97;1693908;84;20973;-71
2022/02/19 00:57:36;;;;;;;15.28;6.08;;;;;;;0.32;87.88;98764.69;1693774;84;21094;-69
2022/02/19 01:00:06;;;;;;;14.18;6.90;;;;;;;0.31;87.88;98750.85;1693742;84;22152;-70
2022/02/19 01:02:39;;;;;;;14.05;7.42;;;;;;;0.30;87.98;98753.30;1667689;84;21010;-70
2022/02/19 01:05:10;;;;;;;14.83;5.20;;;;;;;0.28;88.03;98764.95;1669147;84;20951;-70
2022/02/19 01:07:37;;;;;;;18.17;7.08;;;;;;;0.29;88.11;98750.33;1693849;84;21005;-71
2022/02/19 01:10:11;;;;;;;16.73;7.33;;;;;;;0.29;88.07;98758.47;1693795;84;21033;-70
2022/02/19 01:12:42;;;;;;;15.98;7.25;;;;;;;0.30;88.10;98750.06;1668050;84;21953;-70
2022/02/19 01:15:12;;;;;;;18.52;7.50;;;;;;;0.31;88.09;98750.85;1668364;84;20958;-70
2022/02/19 01:17:41;;;;;;;14.80;6.12;;;;;;;0.32;88.02;98749.79;1693848;84;21013;-69
2022/02/19 01:20:13;;;;;;;19.40;6.70;;;;;;;0.33;88.06;98745.98;1693789;84;21519;-70
2022/02/19 01:22:42;;;;;;;19.20;7.05;;;;;;;0.33;88.00;98745.45;1693821;84;21047;-69
2022/02/19 01:25:10;;;;;;;21.55;7.28;;;;;;;0.31;87.82;98735.95;1693522;84;21462;-70
2022/02/19 01:27:40;;;;;;;15.65;6.65;;;;;;;0.29;87.89;98728.09;1693738;84;21068;-69
2022/02/19 01:30:08;;;;;;;13.95;6.72;;;;;;;0.29;87.95;98729.44;1693830;84;20950;-69
2022/02/19 01:32:36;;;;;;;12.35;6.60;;;;;;;0.30;87.92;98719.42;1693690;83;20957;-69
2022/02/19 01:35:08;;;;;;;18.40;6.75;;;;;;;0.30;87.97;98724.31;1693696;84;21489;-70
2022/02/19 01:37:37;;;;;;;23.42;7.00;;;;;;;0.32;88.01;98711.84;1693676;84;21179;-68
2022/02/19 01:40:06;;;;;;;18.48;7.60;;;;;;;0.31;87.98;98712.37;1693678;84;20890;-69
2022/02/19 01:42:39;;;;;;;13.88;7.00;;;;;;;0.34;88.09;98708.33;1693596;84;21016;-70
2022/02/19 01:45:10;;;;;;;22.07;7.22;;;;;;;0.36;87.93;98708.84;1693626;84;21109;-69
2022/02/19 01:47:39;;;;;;;22.20;7.22;;;;;;;0.38;87.98;98701.79;1667832;84;21009;-70
2022/02/19 01:50:09;;;;;;;22.35;8.08;;;;;;;0.42;87.94;98708.31;1668040;84;22892;-70
2022/02/19 01:52:45;;;;;;;18.27;8.80;;;;;;;0.42;87.72;98707.77;1684351;84;20993;-67
2022/02/19 01:55:16;;;;;;;29.07;8.60;;;;;;;0.40;87.66;98700.45;1664288;86;20970;-68
2022/02/19 01:57:45;;;;;;;19.42;7.90;;;;;;;0.39;87.60;98705.61;1663133;86;21108;-69
2022/02/19 02:00:17;;;;;;;14.73;7.58;;;;;;;0.41;87.64;98702.63;1660048;86;20954;-69
2022/02/19 02:02:49;;;;;;;16.32;7.62;;;;;;;0.41;87.65;98696.64;1662830;86;21230;-69
2022/02/19 02:05:26;;;;;;;16.95;7.92;;;;;;;0.43;87.57;98699.90;1648672;86;21416;-68
2022/02/19 02:07:55;;;;;;;19.07;8.43;;;;;;;0.45;87.55;98684.72;1663976;86;20978;-69
2022/02/19 02:10:22;;;;;;;19.82;8.40;;;;;;;0.47;87.44;98674.41;1639658;86;21549;-70
2022/02/19 02:12:56;;;;;;;26.75;8.40;;;;;;;0.50;87.31;98690.66;1664289;86;20992;-69
2022/02/19 02:15:30;;;;;;;18.23;7.62;;;;;;;0.52;87.34;98699.34;1639704;86;21059;-70
2022/02/19 02:18:02;;;;;;;19.70;8.65;;;;;;;0.54;87.16;98684.98;1663843;86;21009;-69
2022/02/19 02:20:29;;;;;;;17.87;8.08;;;;;;;0.56;87.04;98686.88;1664236;86;20953;-69
2022/02/19 02:23:00;;;;;;;21.48;9.65;;;;;;;0.59;87.07;98686.33;1639505;86;21114;-69
2022/02/19 02:25:33;;;;;;;17.55;7.92;;;;;;;0.62;86.92;98689.02;1664478;86;21541;-69
2022/02/19 02:28:04;;;;;;;17.50;9.28;;;;;;;0.65;86.82;98697.98;1664289;86;20870;-70
2022/02/19 02:30:33;;;;;;;21.80;8.00;;;;;;;0.67;86.67;98702.57;1664252;86;21007;-67
2022/02/19 02:33:11;;;;;;;23.98;8.05;;;;;;;0.71;86.46;98703.13;1639706;86;21474;-70
2022/02/19 02:35:39;;;;;;;19.75;7.62;;;;;;;0.76;86.36;98698.77;1639530;86;21036;-70
2022/02/19 02:38:06;;;;;;;21.25;8.40;;;;;;;0.79;86.18;98690.89;1639308;86;21068;-69
2022/02/19 02:40:35;;;;;;;18.00;6.78;;;;;;;0.81;86.02;98692.79;1664218;86;21248;-70
2022/02/19 02:43:03;;;;;;;15.93;7.42;;;;;;;0.85;85.84;98687.63;1664249;86;20949;-68
2022/02/19 02:45:33;;;;;;;16.70;7.08;;;;;;;0.88;85.70;98683.54;1659084;86;21121;-68
2022/02/19 02:48:02;;;;;;;15.90;6.97;;;;;;;0.91;85.47;98685.16;1637247;87;21056;-70
2022/02/19 02:50:31;;;;;;;20.77;7.55;;;;;;;0.93;85.37;98674.03;1637132;87;21433;-71
2022/02/19 02:52:59;;;;;;;18.90;7.78;;;;;;;0.96;85.16;98674.83;1636985;87;21926;-70
2022/02/19 02:55:27;;;;;;;17.55;6.67;;;;;;;0.97;84.85;98667.77;1614858;87;21032;-70
2022/02/19 02:57:58;;;;;;;20.12;7.78;;;;;;;0.99;84.55;98664.77;1637718;87;21054;-69
2022/02/19 03:00:27;;;;;;;20.50;6.28;;;;;;;1.01;84.38;98666.67;1637356;87;21036;-70
2022/02/19 03:02:56;;;;;;;13.18;5.97;;;;;;;1.03;84.00;98655.54;1637412;87;20857;-70
2022/02/19 03:05:27;;;;;;;14.43;5.15;;;;;;;1.04;83.90;98654.47;1637303;87;21570;-69
2022/02/19 03:07:57;;;;;;;11.60;5.60;;;;;;;1.04;83.59;98643.05;1637319;87;20965;-71
2022/02/19 03:10:25;;;;;;;20.08;6.58;;;;;;;1.07;83.38;98648.48;1637109;87;21064;-71
2022/02/19 03:12:52;;;;;;;14.60;5.50;;;;;;;1.10;82.97;98647.92;1637550;87;21499;-69
2022/02/19 03:15:21;;;;;;;13.22;6.70;;;;;;;1.14;82.66;98647.64;1637159;87;21441;-69
2022/02/19 03:17:49;;;;;;;16.93;5.53;;;;;;;1.15;82.44;98641.11;1637601;87;21533;-71
2022/02/19 03:20:19;;;;;;;14.38;5.97;;;;;;;1.19;82.23;98639.48;1637250;87;20998;-71
2022/02/19 03:22:46;;;;;;;13.18;5.40;;;;;;;1.21;82.11;98638.63;1637238;87;21165;-69
2022/02/19 03:25:18;;;;;;;13.50;5.20;;;;;;;1.25;81.78;98636.70;1637168;87;21017;-69
2022/02/19 03:27:46;;;;;;;14.73;5.25;;;;;;;1.28;81.53;98634.81;1637472;87;21048;-70
2022/02/19 03:30:19;;;;;;;18.15;5.87;;;;;;;1.30;81.32;98631.25;1636945;87;21702;-69
2022/02/19 03:32:45;;;;;;;12.75;5.15;;;;;;;1.32;80.89;98627.72;1637212;87;21540;-69
2022/02/19 03:35:14;;;;;;;14.60;5.22;;;;;;;1.34;80.33;98624.19;1615547;87;21438;-69
2022/02/19 03:37:43;;;;;;;10.80;5.08;;;;;;;1.36;80.27;98612.50;1637097;87;21025;-69
2022/02/19 03:40:34;;;;;;;14.93;6.60;;;;;;;1.39;80.12;98618.73;1636199;87;21001;-69
2022/02/19 03:43:04;;;;;;;15.50;5.90;;;;;;;1.43;79.90;98613.55;1637284;87;21338;-71
2022/02/19 03:45:30;;;;;;;14.43;5.35;;;;;;;1.45;79.45;98605.38;1615039;87;20953;-70
2022/02/19 03:47:59;;;;;;;16.32;5.60;;;;;;;1.44;79.28;98606.48;1634805;85;21088;-70
2022/02/19 03:50:26;;;;;;;15.45;5.83;;;;;;;1.48;78.96;98611.34;1636826;87;21113;-71
2022/02/19 03:52:55;;;;;;;16.30;5.12;;;;;;;1.51;78.64;98612.95;1623846;87;20990;-68
2022/02/19 03:55:27;;;;;;;;;;;;;;;1.52;78.24;98607.77;1638878;87;21141;-71
2022/02/19 03:57:57;;;;;;;16.70;6.15;;;;;;;1.55;78.22;98605.84;1636802;86;20150;-70
2022/02/19 04:00:24;;;;;;;15.28;5.55;;;;;;;1.56;77.95;98594.44;1636730;87;21018;-71
2022/02/19 04:02:52;;;;;;;10.95;5.28;;;;;;;1.57;77.79;98590.63;1636932;87;22440;-71
2022/02/19 04:05:26;;;;;;;16.10;5.35;;;;;;;1.60;77.57;98575.69;1634937;87;20978;-70
2022/02/19 04:07:57;;;;;;;11.40;5.05;;;;;;;1.62;77.26;98568.06;1636783;87;21060;-69
2022/02/19 04:10:26;;;;;;;18.90;5.67;;;;;;;1.63;77.02;98564.25;1636908;87;20981;-70
2022/02/19 04:12:55;;;;;;;14.30;5.58;;;;;;;1.65;77.05;98555.28;1637069;86;21409;-68
2022/02/19 04:15:40;;;;;;;15.40;5.72;;;;;;;1.64;76.85;98565.32;1636819;87;21018;-69
2022/02/19 04:18:07;;;;;;;10.55;4.90;;;;;;;1.65;76.65;98567.50;1637001;87;21022;-69
2022/02/19 04:20:37;;;;;;;13.43;5.45;;;;;;;1.65;76.55;98565.60;1636743;87;21586;-71
2022/02/19 04:23:06;;;;;;;11.75;5.65;;;;;;;1.68;76.63;98581.33;1636841;87;20974;-70
2022/02/19 04:25:39;;;;;;;20.32;5.28;;;;;;;1.68;76.37;98587.30;1636720;87;21014;-71
2022/02/19 04:28:09;;;;;;;9.45;5.47;;;;;;;1.69;76.18;98566.64;1636191;87;21022;-71
2022/02/19 04:30:38;;;;;;;11.68;4.90;;;;;;;1.70;76.15;98567.45;1624354;87;21439;-71
2022/02/19 04:33:06;;;;;;;14.00;5.80;;;;;;;1.72;76.04;98557.66;1636736;86;21048;-70
2022/02/19 04:35:37;;;;;;;11.05;4.95;;;;;;;1.73;75.89;98544.33;1636709;87;20963;-70
2022/02/19 04:38:06;;;;;;;12.45;5.05;;;;;;;1.74;75.80;98535.11;1636760;87;20942;-70
2022/02/19 04:40:35;;;;;;;15.85;5.20;;;;;;;1.75;75.16;98529.92;1636690;87;20922;-70
2022/02/19 04:43:06;;;;;;;10.53;4.72;;;;;;;1.79;75.25;98541.86;1636799;87;20944;-70
2022/02/19 04:45:35;;;;;;;12.23;5.10;;;;;;;1.78;75.16;98526.09;1636604;87;21162;-71
2022/02/19 04:48:03;;;;;;;14.20;5.00;;;;;;;1.80;75.14;98539.39;1657451;86;21021;-69
2022/02/19 04:50:34;;;;;;;9.13;4.75;;;;;;;1.82;74.83;98544.00;1658547;86;21391;-66
2022/02/19 04:53:08;;;;;;;15.95;4.90;;;;;;;1.84;74.68;98554.03;1663918;86;21012;-68
2022/02/19 04:55:41;;;;;;;9.53;4.78;;;;;;;1.86;74.43;98544.23;1660306;86;20993;-70
2022/02/19 04:58:13;;;;;;;;;;;;;;;1.88;74.45;98544.73;1665479;86;21179;-70
2022/02/19 05:00:43;;;;;;;14.50;4.87;;;;;;;1.88;74.24;98537.41;1664348;86;20095;-71
2022/02/19 05:03:21;;;;;;;12.03;4.28;;;;;;;1.91;74.06;98537.40;1649257;86;20986;-68
2022/02/19 05:06:00;;;;;;;13.95;5.35;;;;;;;1.93;74.00;98536.00;1612602;86;21017;-70
2022/02/19 05:08:28;;;;;;;14.60;5.05;;;;;;;1.93;73.76;98506.66;1663973;86;21013;-68
2022/02/19 05:10:56;;;;;;;13.13;5.33;;;;;;;1.93;73.69;98499.32;1664357;86;22354;-67
2022/02/19 05:13:26;;;;;;;12.13;4.40;;;;;;;1.94;73.55;98494.70;1662449;86;21594;-68
2022/02/19 05:15:55;;;;;;;14.38;5.00;;;;;;;1.94;73.40;98491.42;1639543;86;21465;-69
2022/02/19 05:18:37;;;;;;;18.65;5.40;;;;;;;1.96;73.20;98497.13;1662712;86;21165;-69
2022/02/19 05:21:04;;;;;;;15.30;5.58;;;;;;;1.98;73.26;98497.09;1639427;86;20997;-70
2022/02/19 05:23:35;;;;;;;17.85;5.28;;;;;;;2.00;72.88;98501.70;1663658;86;21399;-70
2022/02/19 05:26:04;;;;;;;18.77;5.50;;;;;;;2.04;72.83;98496.50;1664370;86;21499;-71
2022/02/19 05:28:33;;;;;;;14.00;4.42;;;;;;;2.06;72.64;98505.97;1664579;86;21513;-71
2022/02/19 05:31:09;;;;;;;13.78;5.85;;;;;;;2.09;72.13;98511.39;1664449;86;21482;-69
2022/02/19 05:33:42;;;;;;;16.07;4.83;;;;;;;2.10;72.10;98518.44;1663102;86;20941;-68
2022/02/19 05:36:09;;;;;;;10.23;4.60;;;;;;;2.12;72.02;98505.38;1664285;86;21578;-68
2022/02/19 05:38:44;;;;;;;14.60;4.30;;;;;;;2.13;72.08;98511.06;1663852;86;21045;-69
2022/02/19 05:41:13;;;;;;;15.48;4.47;;;;;;;2.14;72.07;98515.42;1664560;86;21463;-70
2022/02/19 05:43:40;;;;;;;13.58;4.95;;;;;;;2.17;72.08;98515.37;1664492;86;21033;-68
2022/02/19 05:46:19;;;;;;;13.53;4.25;;;;;;;2.17;72.04;98514.84;1664481;86;20957;-70
2022/02/19 05:48:45;;;;;;;17.90;4.92;;;;;;;2.17;72.29;98513.48;1640093;86;21104;-70
2022/02/19 05:51:23;;;;;;;9.08;4.65;;;;;;;2.16;72.96;98524.09;1634591;87;21102;-71
2022/02/19 05:53:58;;;;;;;5.22;3.37;;;;;;;2.13;73.74;98520.58;1637151;87;21770;-71
2022/02/19 05:56:29;;;;;;;11.00;5.03;;;;;;;2.12;74.36;98524.94;1637548;87;21504;-72
2022/02/19 05:58:59;;;;;;;9.93;4.70;;;;;;;2.09;75.08;98523.63;1637346;87;20980;-71
2022/02/19 06:01:30;;;;;;;10.80;5.00;;;;;;;2.04;75.90;98523.14;1637311;87;21167;-70
2022/02/19 06:04:01;;;;;;;10.40;4.03;;;;;;;2.00;76.79;98537.56;1637181;87;21555;-72
2022/02/19 06:06:28;;;;;;;10.93;4.53;;;;;;;1.94;77.79;98524.02;1637336;86;21493;-70
2022/02/19 06:08:58;;;;;;;13.65;4.10;;;;;;;1.89;78.88;98528.72;1637235;87;21564;-71
2022/02/19 06:11:30;;;;;;;13.80;5.00;;;;;;;1.83;79.82;98525.23;1637166;87;21029;-69
2022/02/19 06:14:18;;;;;;;10.70;4.05;;;;;;;1.76;80.81;98537.78;1637376;87;20953;-70
2022/02/19 06:16:53;;;;;;;13.45;3.90;;;;;;;1.68;81.66;98539.77;1637339;87;20969;-69
2022/02/19 06:19:36;;;;;;;8.68;4.62;;;;;;;1.62;82.44;98533.55;1637497;87;21052;-70
2022/02/19 06:22:05;;;;;;;12.07;4.17;;;;;;;1.61;82.94;98517.01;1615304;87;21138;-70
2022/02/19 06:24:36;;;;;;;14.03;4.08;;;;;;;1.58;83.47;98489.89;1637341;87;21644;-69
2022/02/19 06:27:05;;;;;;;9.85;4.08;;;;;;;1.57;83.85;98472.49;1637406;87;21831;-70
2022/02/19 06:29:35;;;;;;;10.40;4.92;;;;;;;1.58;84.20;98455.12;1634377;87;21486;-71
2022/02/19 06:32:07;;;;;;;10.23;4.00;;;;;;;1.61;84.49;98451.83;1637270;87;20929;-71
2022/02/19 06:34:39;;;;;;;16.32;4.80;;;;;;;1.63;84.52;98441.49;1637258;87;21005;-70
2022/02/19 06:37:10;;;;;;;8.78;3.98;;;;;;;1.67;84.58;98449.88;1615230;87;20921;-69
2022/02/19 06:39:39;;;;;;;13.88;4.58;;;;;;;1.69;84.49;98455.27;1637358;87;21577;-70
2022/02/19 06:42:09;;;;;;;8.18;4.08;;;;;;;1.73;84.14;98457.41;1634182;87;21009;-70
2022/02/19 06:44:59;;;;;;;13.20;3.90;;;;;;;1.75;83.66;98469.63;1635592;87;20996;-70
2022/02/19 06:47:28;;;;;;;11.05;4.62;;;;;;;1.79;82.65;98472.02;1637475;85;21002;-70
2022/02/19 06:50:00;;;;;;;14.25;4.85;;;;;;;1.87;82.56;98478.74;1623673;87;21077;-70
2022/02/19 06:52:29;;;;;;;12.25;4.55;;;;;;;1.91;81.22;98456.67;1636837;87;21032;-70
2022/02/19 06:55:01;;;;;;;10.85;4.53;;;;;;;1.96;81.00;98460.45;1636427;87;47336;-69
2022/02/19 06:57:27;;;;;;;14.55;4.53;;;;;;;1.99;80.26;98434.87;1623732;87;21038;-68
2022/02/19 06:59:57;;;;;;;10.30;3.90;;;;;;;2.00;79.68;98432.41;1624014;87;21037;-70
2022/02/19 07:02:27;;;;;;;11.55;4.00;;;;;;;2.03;79.13;98421.52;1637067;87;20993;-70
2022/02/19 07:04:58;;;;;;;9.33;4.10;;;;;;;2.08;78.58;98426.89;1623581;87;21022;-70
2022/02/19 07:07:44;;;;;;;8.98;3.70;;;;;;;2.13;77.49;98415.14;1623338;88;21060;-68
2022/02/19 07:10:14;;;;;;;10.25;4.08;;;;;;;2.19;76.67;98384.06;1632682;86;20970;-70
2022/02/19 07:12:52;;;;;;;10.35;5.17;;;;;;;2.26;75.69;98397.30;1637006;87;21458;-71
2022/02/19 07:15:22;;;;;;;16.60;4.62;;;;;;;2.31;74.65;98389.89;1623078;87;20971;-69
2022/02/19 07:18:01;;;;;;;13.78;5.10;;;;;;;2.38;74.34;98410.47;1636341;87;20950;-70
2022/02/19 07:20:38;;;;;;;13.90;4.60;;;;;;;2.42;72.82;98412.30;1623831;87;20999;-72
2022/02/19 07:23:05;;;;;;;10.35;4.20;;;;;;;2.47;72.98;98382.89;1637061;87;20946;-70
2022/02/19 07:25:35;;;;;;;9.15;4.15;;;;;;;2.50;72.50;98379.58;1636836;87;21001;-70
2022/02/19 07:28:07;;;;;;;11.25;3.58;;;;;;;2.57;72.16;98375.13;1636747;87;20958;-70
2022/02/19 07:30:40;;;;;;;9.55;3.40;;;;;;;2.62;71.56;98363.36;1636724;87;21169;-70
2022/02/19 07:33:10;;;;;;;10.03;4.45;;;;;;;2.67;71.48;98346.41;1636645;87;21014;-71
2022/02/19 07:35:40;;;;;;;9.40;3.22;;;;;;;2.70;71.06;98339.56;1632805;86;21502;-71
2022/02/19 07:38:08;;;;;;;7.30;4.37;;;;;;;2.72;70.75;98358.30;1636968;86;21530;-69
2022/02/19 07:40:38;;;;;;;13.10;4.25;;;;;;;2.74;70.63;98368.34;1636693;87;21013;-69
2022/02/19 07:43:08;;;;;;;14.87;4.10;;;;;;;2.75;70.28;98380.83;1624017;87;21166;-72
2022/02/19 07:45:46;;;;;;;7.00;3.47;;;;;;;2.80;69.79;98394.36;1610109;87;21520;-70
2022/02/19 07:48:19;;;;;;;14.87;4.15;;;;;;;2.84;69.45;98417.70;1603090;87;21099;-70
2022/02/19 07:59:56;;;;;;;14.53;5.08;;;;;;;2.96;68.80;98408.55;1625408;87;20998;-69
2022/02/19 08:02:22;;;;;;;11.88;4.58;;;;;;;2.98;68.65;98400.08;1636674;87;21459;-71
2022/02/19 08:04:52;;;;;;;12.00;5.08;;;;;;;3.00;68.58;98417.72;1636429;87;21522;-73
2022/02/19 08:07:22;;;;;;;17.62;5.95;;;;;;;3.02;68.23;98420.95;1636459;87;20911;-70
2022/02/19 08:09:50;;;;;;;16.95;5.58;;;;;;;3.07;68.42;98446.50;1636336;87;21339;-71
2022/02/19 08:12:20;;;;;;;11.83;5.78;;;;;;;3.08;68.21;98429.86;1636539;87;20997;-70
2022/02/19 08:14:52;;;;;;;11.70;5.75;;;;;;;3.13;68.83;98404.47;1636305;87;21033;-71
2022/02/19 08:17:21;;;;;;;14.85;4.60;;;;;;;3.13;69.25;98403.92;1636453;87;20962;-71
2022/02/19 08:19:49;;;;;;;15.90;4.95;;;;;;;3.13;69.76;98406.64;1636517;87;21203;-70
2022/02/19 08:22:20;;;;;;;17.17;4.70;;;;;;;3.12;69.79;98403.65;1636390;87;20985;-71
2022/02/19 08:24:50;;;;;;;9.03;4.00;;;;;;;3.10;69.66;98409.14;1636424;87;21058;-70
2022/02/19 08:27:17;;;;;;;9.95;4.30;;;;;;;3.08;69.54;98405.91;1636595;87;21574;-70
2022/02/19 08:29:46;;;;;;;9.35;5.08;;;;;;;3.07;69.68;98411.89;1634246;87;21073;-72
2022/02/19 08:32:15;;;;;;;14.98;5.90;;;;;;;3.06;69.76;98433.43;1636457;87;21030;-68
2022/02/19 08:34:42;;;;;;;15.03;5.87;;;;;;;3.04;70.01;98413.31;1636440;86;21517;-71
2022/02/19 08:37:10;;;;;;;9.58;4.83;;;;;;;3.06;69.67;98402.67;1636397;87;21017;-69
2022/02/19 08:39:43;;;;;;;11.63;4.67;;;;;;;3.06;69.73;98388.52;1636437;87;21025;-69
2022/02/19 08:42:15;;;;;;;12.18;5.80;;;;;;;3.08;69.79;98395.84;1636422;87;20906;-69
2022/02/19 08:44:43;;;;;;;10.95;4.97;;;;;;;3.08;69.53;98401.28;1636329;87;21438;-70
2022/02/19 08:47:10;;;;;;;13.18;4.75;;;;;;;3.08;69.50;98400.46;1636480;87;21967;-72
2022/02/19 08:49:39;;;;;;;15.55;5.42;;;;;;;3.09;69.44;98393.93;1638341;86;21065;-69
2022/02/19 08:52:08;;;;;;;10.90;5.78;;;;;;;3.09;69.44;98381.11;1664033;86;21509;-71
2022/02/19 08:54:36;;;;;;;20.35;6.15;;;;;;;3.09;69.67;98378.39;1664419;86;20957;-68
2022/02/19 08:57:06;;;;;;;16.20;6.75;;;;;;;3.10;69.65;98383.29;1664606;84;20922;-71
2022/02/19 08:59:35;;;;;;;15.93;5.75;;;;;;;3.09;69.80;98396.08;1664644;86;21142;-69
2022/02/19 09:02:07;;;;;;;12.58;5.72;;;;;;;3.09;69.81;98392.58;1664158;86;20874;-72
2022/02/19 09:04:36;;;;;;;11.30;4.58;;;;;;;3.10;69.82;98395.53;1664432;86;21156;-70
2022/02/19 09:07:06;;;;;;;17.73;5.05;;;;;;;3.10;69.82;98363.69;1663222;86;20982;-70
2022/02/19 09:09:36;;;;;;;12.90;5.12;;;;;;;3.11;69.98;98399.32;1639490;86;20941;-69
2022/02/19 09:12:07;;;;;;;11.45;4.90;;;;;;;3.10;70.01;98370.50;1639568;86;21087;-71
2022/02/19 09:14:35;;;;;;;12.45;5.40;;;;;;;3.10;69.85;98371.04;1664458;86;21042;-69
2022/02/19 09:17:04;;;;;;;11.50;5.40;;;;;;;3.10;70.00;98384.65;1664419;84;20988;-72
2022/02/19 09:19:35;;;;;;;19.77;6.08;;;;;;;3.10;70.05;98386.83;1664488;86;21061;-69
2022/02/19 09:22:08;;;;;;;12.55;5.28;;;;;;;3.11;70.18;98410.20;1664578;86;20958;-68
2022/02/19 09:24:39;;;;;;;12.60;5.72;;;;;;;3.11;70.12;98412.11;1664805;86;21140;-71
2022/02/19 09:27:10;;;;;;;11.50;5.65;;;;;;;3.10;70.23;98408.61;1663492;86;20962;-70
2022/02/19 09:29:36;;;;;;;17.23;6.17;;;;;;;3.11;70.16;98408.03;1664489;86;21037;-70
2022/02/19 09:32:06;;;;;;;13.50;5.08;;;;;;;3.11;70.18;98373.45;1664599;86;21029;-71
2022/02/19 09:34:37;;;;;;;16.12;6.17;;;;;;;3.13;70.36;98383.50;1640019;86;21096;-71
2022/02/19 09:37:08;;;;;;;12.88;5.12;;;;;;;3.15;70.49;98394.91;1617939;86;21013;-70
2022/02/19 09:39:37;;;;;;;15.85;5.42;;;;;;;3.19;70.40;98394.31;1636864;86;21048;-70
2022/02/19 09:42:12;;;;;;;8.53;4.45;;;;;;;3.21;70.44;98381.21;1664502;84;21092;-72
2022/02/19 09:44:42;;;;;;;12.80;4.80;;;;;;;3.22;70.63;98395.06;1664213;86;20969;-70
2022/02/19 09:47:09;;;;;;;10.75;4.37;;;;;;;3.25;70.72;98357.70;1664374;85;21057;-70
2022/02/19 09:49:36;;;;;;;14.23;6.37;;;;;;;3.31;70.53;98346.18;1645497;86;21179;-72
2022/02/19 09:52:05;;;;;;;9.93;4.55;;;;;;;3.39;70.72;98315.53;1637479;86;20905;-71
2022/02/19 09:54:33;;;;;;;13.55;4.50;;;;;;;3.48;70.48;98302.80;1637388;87;21060;-69
2022/02/19 09:57:06;;;;;;;10.45;4.22;;;;;;;3.57;70.30;98281.66;1637304;87;21442;-72
2022/02/19 09:59:35;;;;;;;19.43;4.60;;;;;;;3.64;70.18;98310.13;1637527;87;21395;-70
2022/02/19 10:02:04;;;;;;;16.77;4.37;;;;;;;3.72;70.15;98272.39;1637244;87;22025;-71
2022/02/19 10:04:30;;;;;;;10.25;4.30;;;;;;;3.77;69.99;98262.75;1637490;87;21028;-69
2022/02/19 10:06:59;;;;;;;11.43;4.72;;;;;;;3.85;69.79;98315.72;1637484;86;21018;-70
2022/02/19 10:09:30;;;;;;;12.03;4.90;;;;;;;3.91;69.91;98322.66;1637185;87;20941;-70
2022/02/19 10:12:12;;;;;;;15.93;5.08;;;;;;;3.97;69.92;98292.84;1637662;87;21036;-69
2022/02/19 10:14:46;;;;;;;15.98;5.30;;;;;;;4.02;69.67;98340.98;1637442;87;21001;-72
2022/02/19 10:17:24;;;;;;;27.62;7.30;;;;;;;4.05;69.31;98364.91;1637417;87;20972;-70
2022/02/19 10:20:07;;;;;;;10.95;5.03;;;;;;;4.10;69.06;98361.25;1637469;87;20957;-68
2022/02/19 10:22:39;;;;;;;10.58;4.42;;;;;;;4.11;69.03;98375.95;1615259;87;21474;-70
2022/02/19 10:25:13;;;;;;;16.55;6.22;;;;;;;4.16;68.94;98355.97;1637495;87;21036;-71
2022/02/19 10:27:54;;;;;;;17.15;6.40;;;;;;;4.20;69.05;98360.23;1637297;87;21513;-70
2022/02/19 10:30:25;;;;;;;11.97;5.67;;;;;;;4.23;69.05;98377.36;1637573;87;20965;-71
2022/02/19 10:32:57;;;;;;;14.68;6.42;;;;;;;4.26;69.28;98363.11;1637406;87;21497;-73
2022/02/19 10:35:38;;;;;;;16.10;6.15;;;;;;;4.30;69.06;98376.38;1637509;87;21522;-69
2022/02/19 10:38:13;;;;;;;19.12;7.42;;;;;;;4.34;68.86;98375.20;1637324;87;21004;-71
2022/02/19 10:40:54;;;;;;;15.48;7.10;;;;;;;4.36;69.04;98377.89;1637154;87;20997;-71
2022/02/19 10:43:30;;;;;;;14.20;5.25;;;;;;;4.38;69.02;98381.67;1637474;87;20956;-70
2022/02/19 10:46:00;;;;;;;15.85;5.40;;;;;;;4.42;69.32;98383.23;1637780;87;21067;-71
2022/02/19 10:48:37;;;;;;;16.23;5.42;;;;;;;4.51;68.93;98390.92;1637818;85;21497;-72
2022/02/19 10:51:18;;;;;;;8.55;4.40;;;;;;;4.61;68.96;98406.25;1636405;87;20963;-73
2022/02/19 10:53:59;;;;;;;14.80;5.30;;;;;;;4.68;69.13;98396.28;1636910;87;21196;-71
2022/02/19 10:56:27;;;;;;;18.12;5.30;;;;;;;4.74;69.14;98386.88;1636775;87;21041;-71
2022/02/19 10:59:08;;;;;;;10.28;4.87;;;;;;;4.80;69.12;98384.27;1636895;87;20986;-70
2022/02/19 11:01:50;;;;;;;14.03;5.53;;;;;;;4.81;68.94;98381.78;1636905;87;21554;-71
2022/02/19 11:04:18;;;;;;;22.02;7.12;;;;;;;4.82;68.69;98372.49;1636968;87;21621;-72
2022/02/19 11:06:47;;;;;;;14.15;6.35;;;;;;;4.82;68.56;98377.14;1636844;87;21156;-71
2022/02/19 11:09:17;;;;;;;13.55;6.25;;;;;;;4.81;68.53;98376.31;1636932;87;21168;-71
2022/02/19 11:11:46;;;;;;;14.25;5.62;;;;;;;4.82;68.84;98376.59;1623781;87;20970;-71
2022/02/19 11:14:15;;;;;;;17.02;7.30;;;;;;;4.84;68.71;98374.91;1623983;87;21033;-70
2022/02/19 11:16:43;;;;;;;19.98;7.87;;;;;;;4.87;68.67;98375.65;1636903;87;21032;-70
2022/02/19 11:19:11;;;;;;;16.80;7.72;;;;;;;4.91;68.78;98377.20;1637006;87;21407;-70
2022/02/19 11:21:41;;;;;;;20.25;7.17;;;;;;;4.93;68.93;98372.25;1636874;87;21030;-71
2022/02/19 11:24:10;;;;;;;14.00;6.92;;;;;;;4.97;68.62;98392.34;1636966;87;21109;-71
2022/02/19 11:26:44;;;;;;;15.32;7.00;;;;;;;4.99;68.71;98381.37;1636895;87;21006;-71
2022/02/19 11:29:25;;;;;;;16.57;6.40;;;;;;;5.02;68.47;98369.00;1624280;87;20971;-71
2022/02/19 11:31:55;;;;;;;15.65;5.75;;;;;;;5.06;68.29;98352.27;1636908;87;21113;-69
2022/02/19 11:34:26;;;;;;;14.43;7.33;;;;;;;5.12;68.23;98329.70;1636821;87;21091;-69
2022/02/19 11:37:15;;;;;;;13.62;6.67;;;;;;;5.13;67.90;98342.26;1624009;87;21029;-70
2022/02/19 11:40:10;;;;;;;17.95;7.55;;;;;;;5.16;67.84;98358.56;1636848;86;21530;-72
2022/02/19 11:42:50;;;;;;;13.03;6.03;;;;;;;5.17;67.75;98359.61;1637035;87;21072;-71
2022/02/19 11:45:31;;;;;;;13.13;6.58;;;;;;;5.18;67.93;98375.45;1636865;87;20990;-72
2022/02/19 11:48:10;;;;;;;15.48;6.78;;;;;;;5.19;68.16;98376.50;1636850;87;21058;-71
2022/02/19 11:50:43;;;;;;;17.85;6.85;;;;;;;5.22;68.14;98375.88;1636861;85;21605;-71
2022/02/19 11:53:15;;;;;;;13.62;6.22;;;;;;;5.27;68.28;98355.81;1636444;87;21049;-71
2022/02/19 11:55:44;;;;;;;12.03;5.85;;;;;;;5.30;68.33;98352.48;1636950;87;20973;-70
2022/02/19 11:58:22;;;;;;;13.50;5.92;;;;;;;5.34;68.62;98330.80;1636625;87;21129;-71
2022/02/19 12:01:15;;;;;;;17.75;6.45;;;;;;;5.39;68.33;98360.69;1636316;87;21535;-72